createdAt,value
2019-05-18T00:00:03.903Z,8.50
2019-05-18T00:05:09.892Z,8.50
2019-05-18T00:15:26.384Z,6.87
2019-05-18T00:26:02.355Z,5.77
2019-05-18T00:31:07.863Z,5.75
2019-05-18T00:36:13.312Z,5.07
2019-05-18T00:41:18.626Z,5.20
2019-05-18T00:46:23.891Z,5.67
2019-05-18T00:51:29.280Z,4.50
2019-05-18T00:56:34.592Z,5.97
2019-05-18T01:01:39.969Z,5.47
2019-05-18T01:06:45.724Z,4.97
2019-05-18T01:11:51.143Z,5.43
2019-05-18T01:16:56.659Z,5.13
2019-05-18T01:22:01.971Z,4.60
2019-05-18T01:27:07.382Z,4.60
2019-05-18T01:32:12.706Z,4.43
2019-05-18T01:37:18.154Z,5.07
2019-05-18T01:42:23.622Z,4.53
2019-05-18T01:47:28.969Z,5.07
2019-05-18T01:52:34.337Z,4.78
2019-05-18T01:57:39.677Z,5.67
2019-05-18T02:02:45.366Z,4.87
2019-05-18T02:07:50.969Z,5.77
2019-05-18T02:12:56.376Z,5.70
2019-05-18T02:18:01.726Z,5.07
2019-05-18T02:23:07.170Z,5.03
2019-05-18T02:28:12.490Z,5.07
2019-05-18T02:33:17.913Z,5.50
2019-05-18T02:38:23.271Z,5.27
2019-05-18T02:43:28.582Z,5.17
2019-05-18T02:48:48.901Z,4.87
2019-05-18T02:53:41.065Z,5.35
2019-05-18T02:58:46.359Z,4.90
2019-05-18T03:03:51.771Z,4.33
2019-05-18T03:08:57.086Z,4.70
2019-05-18T03:14:02.577Z,4.57
2019-05-18T03:19:09.297Z,4.80
2019-05-18T03:24:14.736Z,5.00
2019-05-18T03:29:20.191Z,4.53
2019-05-18T03:34:25.622Z,4.70
2019-05-18T03:39:30.960Z,5.15
2019-05-18T03:44:36.201Z,5.60
2019-05-18T03:49:41.515Z,6.37
2019-05-18T03:54:46.907Z,7.33
2019-05-18T03:59:52.221Z,8.63
2019-05-18T04:04:57.631Z,10.03
2019-05-18T04:10:02.946Z,12.93
2019-05-18T04:15:08.766Z,12.27
2019-05-18T04:20:14.299Z,11.67
2019-05-18T04:25:19.588Z,11.27
2019-05-18T04:30:25.116Z,11.27
2019-05-18T04:35:30.383Z,12.37
2019-05-18T04:40:35.832Z,12.20
2019-05-18T04:45:41.214Z,12.07
2019-05-18T04:50:46.598Z,10.60
2019-05-18T04:55:51.944Z,10.17
2019-05-18T05:00:57.302Z,10.83
2019-05-18T05:06:02.618Z,10.27
2019-05-18T05:11:07.848Z,10.33
2019-05-18T05:16:13.460Z,11.07
2019-05-18T05:21:18.739Z,11.73
2019-05-18T05:26:24.206Z,13.27
2019-05-18T05:31:29.770Z,13.03
2019-05-18T05:36:35.030Z,13.50
2019-05-18T05:41:40.272Z,12.73
2019-05-18T05:46:45.643Z,13.20
2019-05-18T05:51:51.057Z,12.30
2019-05-18T05:56:56.379Z,13.07
2019-05-18T06:02:02.017Z,13.27
2019-05-18T06:07:07.375Z,14.03
2019-05-18T06:12:12.661Z,14.20
2019-05-18T06:17:18.062Z,13.83
2019-05-18T06:22:23.449Z,13.70
2019-05-18T06:27:28.814Z,14.07
2019-05-18T06:32:34.055Z,13.73
2019-05-18T06:37:39.427Z,13.17
2019-05-18T06:42:44.674Z,17.33
2019-05-18T06:47:50.027Z,13.20
2019-05-18T06:52:55.353Z,13.93
2019-05-18T06:58:01.985Z,13.73
2019-05-18T07:03:07.285Z,14.53
2019-05-18T07:08:12.938Z,13.27
2019-05-18T07:13:18.355Z,13.37
2019-05-18T07:18:23.585Z,12.60
2019-05-18T07:23:29.038Z,13.48
2019-05-18T07:28:34.646Z,13.00
2019-05-18T07:33:40.187Z,11.97
2019-05-18T07:38:45.835Z,12.30
2019-05-18T07:43:51.329Z,13.77
2019-05-18T07:50:12.295Z,12.73
2019-05-18T07:55:17.862Z,13.58
2019-05-18T08:00:22.875Z,14.47
2019-05-18T08:10:45.121Z,13.07
2019-05-18T08:15:50.449Z,12.90
2019-05-18T08:20:55.215Z,13.57
2019-05-18T08:26:00.160Z,14.03
2019-05-18T08:31:05.102Z,12.27
2019-05-18T08:36:10.830Z,13.53
2019-05-18T08:41:15.608Z,13.93
2019-05-18T08:46:20.631Z,14.27
2019-05-18T08:51:25.475Z,13.43
2019-05-18T08:56:30.715Z,14.30
2019-05-18T09:01:36.479Z,14.70
2019-05-18T09:06:41.222Z,16.83
2019-05-18T09:11:46.436Z,17.53
2019-05-18T09:16:51.567Z,14.17
2019-05-18T09:21:56.343Z,14.20
2019-05-18T09:27:02.236Z,14.87
2019-05-18T09:32:07.331Z,15.10
2019-05-18T09:37:12.354Z,15.60
2019-05-18T09:42:17.243Z,17.10
2019-05-18T09:47:22.667Z,16.87
2019-05-18T09:52:44.075Z,16.37
2019-05-18T09:57:34.187Z,15.07
2019-05-18T10:02:39.487Z,15.80
2019-05-18T10:07:44.460Z,15.33
2019-05-18T10:12:49.294Z,15.53
2019-05-18T10:17:54.224Z,14.80
2019-05-18T10:23:11.966Z,14.77
2019-05-18T10:28:05.730Z,14.53
2019-05-18T10:33:11.006Z,14.57
2019-05-18T10:38:16.087Z,14.83
2019-05-18T10:43:20.841Z,13.93
2019-05-18T10:48:25.745Z,14.77
2019-05-18T10:53:30.526Z,15.37
2019-05-18T10:58:35.888Z,13.70
2019-05-18T11:03:40.769Z,13.97
2019-05-18T11:08:45.658Z,12.57
2019-05-18T11:13:50.407Z,11.50
2019-05-18T11:18:55.176Z,10.97
2019-05-18T11:24:00.087Z,11.50
2019-05-18T11:29:04.870Z,10.67
2019-05-18T11:34:09.712Z,10.33
2019-05-18T11:39:14.547Z,10.63
2019-05-18T11:44:19.549Z,10.20
2019-05-18T11:49:24.374Z,10.77
2019-05-18T11:54:29.104Z,9.88
2019-05-18T11:59:34.929Z,9.60
2019-05-18T12:04:40.121Z,9.67
2019-05-18T12:09:45.110Z,8.50
2019-05-18T12:14:49.789Z,8.40
2019-05-18T12:19:54.669Z,9.13
2019-05-18T12:24:59.451Z,7.80
2019-05-18T12:30:04.483Z,7.67
2019-05-18T12:35:09.599Z,8.17
2019-05-18T12:40:18.660Z,7.47
2019-05-18T12:45:24.111Z,8.73
2019-05-18T12:50:29.320Z,7.60
2019-05-18T12:55:34.342Z,7.13
2019-05-18T13:00:39.221Z,7.37
2019-05-18T13:05:44.071Z,8.30
2019-05-18T13:10:49.029Z,7.07
2019-05-18T13:15:53.695Z,7.93
2019-05-18T13:20:58.746Z,6.97
2019-05-18T13:26:03.941Z,7.10
2019-05-18T13:31:08.950Z,6.47
2019-05-18T13:36:13.759Z,5.60
2019-05-18T13:41:18.636Z,5.33
2019-05-18T13:46:24.106Z,5.20
2019-05-18T13:51:28.978Z,4.92
2019-05-18T13:56:34.029Z,5.33
2019-05-18T14:01:38.991Z,6.30
2019-05-18T14:06:43.958Z,5.67
2019-05-18T14:11:49.155Z,6.93
2019-05-18T14:16:54.119Z,6.27
2019-05-18T14:21:59.272Z,5.37
2019-05-18T14:27:04.166Z,6.63
2019-05-18T14:32:11.090Z,6.53
2019-05-18T14:37:16.026Z,6.07
2019-05-18T14:42:21.043Z,6.90
2019-05-18T14:47:27.514Z,6.77
2019-05-18T14:52:32.563Z,7.23
2019-05-18T14:57:37.419Z,8.57
2019-05-18T15:02:42.189Z,6.60
2019-05-18T15:07:46.937Z,6.00
2019-05-18T15:12:51.795Z,7.30
2019-05-18T15:17:56.937Z,7.77
2019-05-18T15:23:01.724Z,7.97
2019-05-18T15:28:07.046Z,6.90
2019-05-18T15:33:11.936Z,6.57
2019-05-18T15:38:16.737Z,7.33
2019-05-18T15:43:21.558Z,6.17
2019-05-18T15:48:26.789Z,5.40
2019-05-18T15:53:31.677Z,6.15
2019-05-18T15:58:36.555Z,4.93
2019-05-18T16:03:41.513Z,5.60
2019-05-18T16:08:46.621Z,4.87
2019-05-18T16:13:51.536Z,5.13
2019-05-18T16:18:56.362Z,7.03
2019-05-18T16:24:01.260Z,5.43
2019-05-18T16:29:06.240Z,4.57
2019-05-18T16:34:11.450Z,4.80
2019-05-18T16:39:16.394Z,5.97
2019-05-18T16:44:21.259Z,4.90
2019-05-18T16:49:26.125Z,5.03
2019-05-18T16:54:30.898Z,4.50
2019-05-18T16:59:35.944Z,4.73
2019-05-18T17:04:40.866Z,4.43
2019-05-18T17:09:45.599Z,4.97
2019-05-18T17:14:51.014Z,4.50
2019-05-18T17:19:56.183Z,5.13
2019-05-18T17:25:01.259Z,5.13
2019-05-18T17:30:06.483Z,5.50
2019-05-18T17:35:11.922Z,4.87
2019-05-18T17:40:18.274Z,5.13
2019-05-18T17:45:23.288Z,3.73
2019-05-18T17:50:28.329Z,5.90
2019-05-18T17:55:33.225Z,5.30
2019-05-18T18:00:38.192Z,6.23
2019-05-18T18:05:43.020Z,5.53
2019-05-18T18:16:04.679Z,4.10
2019-05-18T18:21:09.660Z,5.13
2019-05-18T18:26:14.326Z,4.47
2019-05-18T18:31:19.091Z,5.33
2019-05-18T18:36:24.387Z,4.65
2019-05-18T18:46:59.707Z,4.43
2019-05-18T18:52:05.420Z,6.67
2019-05-18T19:08:08.532Z,6.03
2019-05-18T19:24:07.493Z,4.70
2019-05-18T19:29:12.244Z,5.23
2019-05-18T19:34:17.309Z,5.90
2019-05-18T19:39:22.189Z,5.60
2019-05-18T19:44:27.010Z,5.83
2019-05-18T19:49:31.767Z,6.47
2019-05-18T19:54:36.651Z,6.53
2019-05-18T19:59:41.418Z,6.95
2019-05-18T20:05:05.901Z,6.13
2019-05-18T20:09:53.045Z,6.70
2019-05-18T20:14:57.929Z,6.97
2019-05-18T20:20:02.739Z,6.90
2019-05-18T20:25:08.647Z,7.33
2019-05-18T20:30:14.112Z,7.13
2019-05-18T20:35:19.010Z,7.13
2019-05-18T20:40:24.251Z,8.55
2019-05-18T20:45:28.991Z,9.10
2019-05-18T20:50:33.759Z,7.70
2019-05-18T20:55:38.730Z,6.60
2019-05-18T21:00:43.469Z,6.53
2019-05-18T21:05:48.740Z,6.93
2019-05-18T21:10:53.686Z,7.40
2019-05-18T21:15:58.408Z,6.87
2019-05-18T21:21:03.208Z,7.27
2019-05-18T21:26:07.969Z,7.60
2019-05-18T21:31:12.922Z,8.63
2019-05-18T21:36:17.711Z,8.13
2019-05-18T21:41:22.650Z,8.80
2019-05-18T21:46:27.561Z,8.70
2019-05-18T21:51:32.382Z,7.40
2019-05-18T21:56:37.346Z,7.97
2019-05-18T22:01:42.673Z,7.80
2019-05-18T22:06:47.550Z,7.77
2019-05-18T22:11:52.310Z,7.30
2019-05-18T22:16:57.227Z,8.50
2019-05-18T22:22:02.062Z,8.83
2019-05-18T22:27:06.989Z,12.07
2019-05-18T22:32:12.045Z,12.80
2019-05-18T22:37:17.110Z,14.20
2019-05-18T22:42:22.047Z,14.53
2019-05-18T22:47:26.887Z,15.27
2019-05-18T22:52:31.790Z,15.50
2019-05-18T22:57:36.759Z,15.28
2019-05-18T23:02:41.519Z,15.70
2019-05-18T23:07:46.639Z,15.67
2019-05-18T23:12:51.507Z,14.63
2019-05-18T23:17:56.489Z,15.73
2019-05-18T23:23:01.290Z,15.90
2019-05-18T23:28:06.087Z,15.30
2019-05-18T23:33:10.911Z,15.40
2019-05-18T23:38:15.767Z,16.57
2019-05-18T23:43:20.605Z,16.97
2019-05-18T23:48:25.421Z,16.33
2019-05-18T23:53:30.123Z,15.23
2019-05-18T23:58:34.944Z,15.00
